createdAt,value
2022-09-15T00:01:52.183Z,58.23
2022-09-15T00:04:20.002Z,58.20
2022-09-15T00:06:51.272Z,58.05
2022-09-15T00:12:16.403Z,58.22
2022-09-15T00:14:47.612Z,58.50
2022-09-15T00:17:20.241Z,58.40
2022-09-15T00:19:54.015Z,58.57
2022-09-15T00:22:21.119Z,58.52
2022-09-15T00:24:50.235Z,58.47
2022-09-15T00:27:18.621Z,58.24
2022-09-15T00:29:45.630Z,58.47
2022-09-15T00:32:15.245Z,58.35
2022-09-15T00:34:43.600Z,58.42
2022-09-15T00:37:11.935Z,58.46
2022-09-15T00:39:43.105Z,58.62
2022-09-15T00:42:35.340Z,58.61
2022-09-15T00:45:10.108Z,58.42
2022-09-15T00:47:51.603Z,58.72
2022-09-15T00:50:24.662Z,58.47
2022-09-15T00:53:22.280Z,58.38
2022-09-15T00:56:02.846Z,58.56
2022-09-15T00:58:50.284Z,58.54
2022-09-15T01:01:20.041Z,58.50
2022-09-15T01:03:47.116Z,58.32
2022-09-15T01:06:52.708Z,58.58
2022-09-15T01:09:30.887Z,58.65
2022-09-15T01:12:38.113Z,58.51
2022-09-15T01:15:10.397Z,58.47
2022-09-15T01:18:08.485Z,58.68
2022-09-15T01:20:41.845Z,58.43
2022-09-15T01:23:12.648Z,58.45
2022-09-15T01:26:30.038Z,58.44
2022-09-15T01:29:51.612Z,58.52
2022-09-15T01:33:05.737Z,58.70
2022-09-15T01:35:40.968Z,58.71
2022-09-15T01:38:41.816Z,58.90
2022-09-15T01:41:32.507Z,58.55
2022-09-15T01:44:17.220Z,58.88
2022-09-15T01:47:02.651Z,58.92
2022-09-15T01:49:41.243Z,58.86
2022-09-15T01:52:27.389Z,58.73
2022-09-15T01:55:00.867Z,58.69
2022-09-15T01:57:29.624Z,58.65
2022-09-15T01:59:59.355Z,58.59
2022-09-15T02:02:52.112Z,58.38
2022-09-15T02:05:34.346Z,58.64
2022-09-15T02:08:27.250Z,58.70
2022-09-15T02:11:31.606Z,58.85
2022-09-15T02:14:33.377Z,58.87
2022-09-15T02:17:03.835Z,58.73
2022-09-15T02:19:55.054Z,58.80
2022-09-15T02:22:55.405Z,58.68
2022-09-15T02:25:30.781Z,58.78
2022-09-15T02:28:43.356Z,58.86
2022-09-15T02:31:49.003Z,58.88
2022-09-15T02:34:45.057Z,58.90
2022-09-15T02:37:19.646Z,58.89
2022-09-15T02:40:05.756Z,59.11
2022-09-15T02:42:34.627Z,58.65
2022-09-15T02:45:05.172Z,58.66
2022-09-15T02:47:32.197Z,58.58
2022-09-15T02:49:59.208Z,58.80
2022-09-15T02:52:28.052Z,58.65
2022-09-15T02:54:54.931Z,58.82
2022-09-15T02:57:27.282Z,58.86
2022-09-15T03:00:14.601Z,58.83
2022-09-15T03:02:57.368Z,58.62
2022-09-15T03:05:33.725Z,58.75
2022-09-15T03:08:01.011Z,58.59
2022-09-15T03:10:30.432Z,58.43
2022-09-15T03:13:01.380Z,58.46
2022-09-15T03:15:28.472Z,58.96
2022-09-15T03:17:58.020Z,58.57
2022-09-15T03:20:31.119Z,58.89
2022-09-15T03:23:14.413Z,58.58
2022-09-15T03:25:41.322Z,58.60
2022-09-15T03:28:10.884Z,58.71
2022-09-15T03:30:43.826Z,58.61
2022-09-15T03:36:01.185Z,58.58
2022-09-15T03:38:34.596Z,58.51
2022-09-15T03:41:23.818Z,58.65
2022-09-15T03:43:51.639Z,58.66
2022-09-15T03:46:19.387Z,58.48
2022-09-15T03:48:52.639Z,58.42
2022-09-15T03:51:19.563Z,58.51
2022-09-15T03:53:51.031Z,58.55
2022-09-15T03:56:36.102Z,58.60
2022-09-15T03:59:05.798Z,58.76
2022-09-15T04:01:40.245Z,58.40
2022-09-15T04:04:12.857Z,58.34
2022-09-15T04:06:44.255Z,58.71
2022-09-15T04:09:15.931Z,58.65
2022-09-15T04:11:48.861Z,58.75
2022-09-15T04:14:16.414Z,58.60
2022-09-15T04:16:50.851Z,58.33
2022-09-15T04:19:18.992Z,58.72
2022-09-15T04:21:52.549Z,58.56
2022-09-15T04:24:19.637Z,58.84
2022-09-15T04:26:54.144Z,58.40
2022-09-15T04:29:23.120Z,58.80
2022-09-15T04:31:50.496Z,58.56
2022-09-15T04:34:17.598Z,58.48
2022-09-15T04:36:44.691Z,58.20
2022-09-15T04:39:11.564Z,58.36
2022-09-15T04:41:38.504Z,58.61
2022-09-15T04:44:05.467Z,58.61
2022-09-15T04:46:32.705Z,58.56
2022-09-15T04:48:59.724Z,58.75
2022-09-15T04:51:27.346Z,58.70
2022-09-15T04:53:54.246Z,58.56
2022-09-15T04:56:25.761Z,58.45
2022-09-15T04:59:03.618Z,58.61
2022-09-15T05:01:34.376Z,58.52
2022-09-15T05:04:04.122Z,58.49
2022-09-15T05:06:31.810Z,58.55
2022-09-15T05:08:58.778Z,58.83
2022-09-15T05:11:26.629Z,58.97
2022-09-15T05:13:54.111Z,58.44
2022-09-15T05:16:24.339Z,58.90
2022-09-15T05:18:53.850Z,58.42
2022-09-15T05:21:22.738Z,58.59
2022-09-15T05:23:52.001Z,58.83
2022-09-15T05:26:22.118Z,58.85
2022-09-15T05:28:48.966Z,58.77
2022-09-15T05:31:21.436Z,59.00
2022-09-15T05:33:50.289Z,58.99
2022-09-15T05:36:18.575Z,58.56
2022-09-15T05:38:45.567Z,58.67
2022-09-15T05:41:17.748Z,58.89
2022-09-15T05:43:49.014Z,58.67
2022-09-15T05:46:17.588Z,58.62
2022-09-15T05:48:45.818Z,58.90
2022-09-15T05:51:13.503Z,58.92
2022-09-15T05:53:40.939Z,58.97
2022-09-15T05:56:11.940Z,59.04
2022-09-15T05:58:41.104Z,58.95
2022-09-15T06:01:11.933Z,59.01
2022-09-15T06:03:39.319Z,58.88
2022-09-15T06:06:06.682Z,58.84
2022-09-15T06:08:41.467Z,58.66
2022-09-15T06:11:18.515Z,58.83
2022-09-15T06:13:46.550Z,58.61
2022-09-15T06:16:15.534Z,58.85
2022-09-15T06:18:42.968Z,58.65
2022-09-15T06:21:12.690Z,58.81
2022-09-15T06:23:40.135Z,58.69
2022-09-15T06:26:12.565Z,58.57
2022-09-15T06:28:40.901Z,58.74
2022-09-15T06:31:12.623Z,58.55
2022-09-15T06:33:48.174Z,58.68
2022-09-15T06:36:16.287Z,58.78
2022-09-15T06:38:44.126Z,58.53
2022-09-15T06:41:11.895Z,58.78
2022-09-15T06:43:39.455Z,58.70
2022-09-15T06:46:18.353Z,58.45
2022-09-15T06:48:48.310Z,58.52
2022-09-15T06:51:17.310Z,58.68
2022-09-15T06:53:44.674Z,58.66
2022-09-15T06:56:18.256Z,58.60
2022-09-15T06:58:48.865Z,58.63
2022-09-15T07:01:32.148Z,58.64
2022-09-15T07:04:01.024Z,58.62
2022-09-15T07:06:30.195Z,58.26
2022-09-15T07:09:01.770Z,58.58
2022-09-15T07:11:29.337Z,58.55
2022-09-15T07:13:56.142Z,58.55
2022-09-15T07:16:25.577Z,58.64
2022-09-15T07:18:55.865Z,58.80
2022-09-15T07:21:23.909Z,58.45
2022-09-15T07:23:50.724Z,58.40
2022-09-15T07:26:20.143Z,58.58
2022-09-15T07:28:50.942Z,58.49
2022-09-15T07:31:20.896Z,58.52
2022-09-15T07:33:48.094Z,58.76
2022-09-15T07:36:15.447Z,58.55
2022-09-15T07:38:47.980Z,58.57
2022-09-15T07:41:22.242Z,58.31
2022-09-15T07:43:51.265Z,58.46
2022-09-15T07:46:19.452Z,58.89
2022-09-15T07:48:51.944Z,58.79
2022-09-15T07:51:19.749Z,58.84
2022-09-15T07:53:47.985Z,58.69
2022-09-15T07:56:17.942Z,58.81
2022-09-15T07:58:46.130Z,58.69
2022-09-15T08:01:16.912Z,58.70
2022-09-15T08:03:49.106Z,58.63
2022-09-15T08:06:21.732Z,58.76
2022-09-15T08:08:50.244Z,58.57
2022-09-15T08:11:19.422Z,58.80
2022-09-15T08:13:48.485Z,58.89
2022-09-15T08:16:18.506Z,58.55
2022-09-15T08:18:45.849Z,59.00
2022-09-15T08:21:16.371Z,58.94
2022-09-15T08:23:43.866Z,58.92
2022-09-15T08:26:14.412Z,58.85
2022-09-15T08:28:42.492Z,58.67
2022-09-15T08:31:11.728Z,58.65
2022-09-15T08:33:43.153Z,58.79
2022-09-15T08:36:13.326Z,58.71
2022-09-15T08:38:41.211Z,58.92
2022-09-15T08:41:12.691Z,58.63
2022-09-15T08:43:48.017Z,58.50
2022-09-15T08:46:20.179Z,58.78
2022-09-15T08:49:30.792Z,58.94
2022-09-15T08:52:19.375Z,59.03
2022-09-15T08:54:46.502Z,58.69
2022-09-15T08:57:20.016Z,58.88
2022-09-15T08:59:47.016Z,58.73
2022-09-15T09:02:13.875Z,58.69
2022-09-15T09:04:57.458Z,58.39
2022-09-15T09:08:01.543Z,58.52
2022-09-15T09:10:51.763Z,58.84
2022-09-15T09:13:42.288Z,59.15
2022-09-15T09:16:44.381Z,58.46
2022-09-15T09:19:17.067Z,58.36
2022-09-15T09:21:51.550Z,58.84
2022-09-15T09:24:33.039Z,58.67
2022-09-15T09:27:02.180Z,58.73
2022-09-15T09:29:39.291Z,58.78
2022-09-15T09:32:21.916Z,58.31
2022-09-15T09:35:20.159Z,58.72
2022-09-15T09:37:47.636Z,58.45
2022-09-15T09:40:15.740Z,58.77
2022-09-15T09:42:43.590Z,58.41
2022-09-15T09:45:19.161Z,58.74
2022-09-15T09:47:48.802Z,58.32
2022-09-15T09:50:36.087Z,58.26
2022-09-15T09:53:38.581Z,58.64
2022-09-15T09:56:18.511Z,58.54
2022-09-15T09:58:45.796Z,58.56
2022-09-15T10:01:15.482Z,58.62
2022-09-15T10:03:43.930Z,58.43
2022-09-15T10:06:18.873Z,58.67
2022-09-15T10:09:03.675Z,58.79
2022-09-15T10:11:47.989Z,58.71
2022-09-15T10:14:40.172Z,58.34
2022-09-15T10:17:13.129Z,58.22
2022-09-15T10:19:42.789Z,58.47
2022-09-15T10:22:34.810Z,58.26
2022-09-15T10:25:04.544Z,58.20
2022-09-15T10:27:33.992Z,58.39
2022-09-15T10:30:12.942Z,58.41
2022-09-15T10:32:40.888Z,58.16
2022-09-15T10:35:18.843Z,58.43
2022-09-15T10:37:45.704Z,58.44
2022-09-15T10:40:28.236Z,58.45
2022-09-15T10:43:17.072Z,58.52
2022-09-15T10:45:48.975Z,58.26
2022-09-15T10:49:00.788Z,58.35
2022-09-15T10:51:55.420Z,58.49
2022-09-15T10:54:41.583Z,57.95
2022-09-15T10:57:33.455Z,58.31
2022-09-15T11:00:03.295Z,58.50
2022-09-15T11:02:59.990Z,58.35
2022-09-15T11:06:03.830Z,57.98
2022-09-15T11:08:51.496Z,57.85
2022-09-15T11:11:24.117Z,57.96
2022-09-15T11:14:00.010Z,58.18
2022-09-15T11:16:57.789Z,57.94
2022-09-15T11:19:30.832Z,57.91
2022-09-15T11:22:05.270Z,58.57
2022-09-15T11:24:48.079Z,57.89
2022-09-15T11:27:34.542Z,58.01
2022-09-15T11:30:21.404Z,57.89
2022-09-15T11:32:55.611Z,58.19
2022-09-15T11:35:29.935Z,57.98
2022-09-15T11:38:13.232Z,58.14
2022-09-15T11:40:51.992Z,58.30
2022-09-15T11:43:29.867Z,57.85
2022-09-15T11:45:59.553Z,57.89
2022-09-15T11:48:48.358Z,57.89
2022-09-15T11:51:16.869Z,57.86
2022-09-15T11:53:57.167Z,58.14
2022-09-15T11:56:35.045Z,58.02
2022-09-15T11:59:10.039Z,58.03
2022-09-15T12:01:46.112Z,57.71
2022-09-15T12:04:20.482Z,57.95
2022-09-15T12:09:33.380Z,57.87
2022-09-15T12:12:08.909Z,57.99
2022-09-15T12:14:41.270Z,57.71
2022-09-15T12:17:15.659Z,57.74
2022-09-15T12:20:21.624Z,57.66
2022-09-15T12:23:04.891Z,57.83
2022-09-15T12:26:14.665Z,57.88
2022-09-15T12:28:50.835Z,57.94
2022-09-15T12:31:23.877Z,58.28
2022-09-15T12:33:55.085Z,58.07
2022-09-15T12:36:55.518Z,57.90
2022-09-15T12:39:24.161Z,58.13
2022-09-15T12:42:05.178Z,57.86
2022-09-15T12:44:44.615Z,58.33
2022-09-15T12:47:18.548Z,57.97
2022-09-15T12:49:48.503Z,58.46
2022-09-15T12:52:17.069Z,57.94
2022-09-15T12:54:50.005Z,58.51
2022-09-15T12:57:34.402Z,58.21
2022-09-15T13:01:17.052Z,58.31
2022-09-15T13:03:41.731Z,58.26
2022-09-15T13:06:28.997Z,58.52
2022-09-15T13:09:01.967Z,58.64
2022-09-15T13:11:37.408Z,58.47
2022-09-15T13:14:06.858Z,58.32
2022-09-15T13:16:40.310Z,58.98
2022-09-15T13:19:13.790Z,58.40
2022-09-15T13:21:45.919Z,58.13
2022-09-15T13:24:20.313Z,58.45
2022-09-15T13:26:52.930Z,58.16
2022-09-15T13:29:23.044Z,58.16
2022-09-15T13:31:58.382Z,58.06
2022-09-15T13:41:03.951Z,58.13
2022-09-15T13:43:37.375Z,58.29
2022-09-15T13:46:36.364Z,58.19
2022-09-15T13:49:12.679Z,58.39
2022-09-15T13:51:44.627Z,58.34
2022-09-15T13:54:18.871Z,58.04
2022-09-15T13:56:47.450Z,58.06
2022-09-15T13:59:28.148Z,58.25
2022-09-15T14:01:56.923Z,58.17
2022-09-15T14:04:27.981Z,58.19
2022-09-15T14:07:00.239Z,58.13
2022-09-15T14:09:33.295Z,58.07
2022-09-15T14:12:09.625Z,57.69
2022-09-15T14:14:44.167Z,57.62
2022-09-15T14:17:21.454Z,58.13
2022-09-15T14:20:01.469Z,57.99
2022-09-15T14:22:31.159Z,57.69
2022-09-15T14:24:59.633Z,57.79
2022-09-15T14:27:29.646Z,57.71
2022-09-15T14:30:01.187Z,57.93
2022-09-15T14:32:29.583Z,57.85
2022-09-15T14:35:00.472Z,57.54
2022-09-15T14:37:29.061Z,57.87
2022-09-15T14:39:58.317Z,57.96
2022-09-15T14:42:32.566Z,57.82
2022-09-15T14:48:15.608Z,57.67
2022-09-15T14:50:45.204Z,57.49
2022-09-15T14:53:22.261Z,57.74
2022-09-15T14:55:57.988Z,57.90
2022-09-15T14:58:49.772Z,57.67
2022-09-15T15:01:19.610Z,57.30
2022-09-15T15:04:09.893Z,57.90
2022-09-15T15:06:45.550Z,57.64
2022-09-15T15:09:23.830Z,57.42
2022-09-15T15:11:55.227Z,57.31
2022-09-15T15:17:24.836Z,57.25
2022-09-15T15:19:58.654Z,57.18
2022-09-15T15:22:26.868Z,57.36
2022-09-15T15:24:54.888Z,57.16
2022-09-15T15:27:33.919Z,57.22
2022-09-15T15:30:31.464Z,57.65
2022-09-15T15:33:09.319Z,57.29
2022-09-15T15:35:36.338Z,57.58
2022-09-15T15:38:25.319Z,57.20
2022-09-15T15:41:04.463Z,57.43
2022-09-15T15:43:31.945Z,57.37
2022-09-15T15:46:01.417Z,57.62
2022-09-15T15:48:37.838Z,57.54
2022-09-15T15:51:06.820Z,57.39
2022-09-15T15:53:34.437Z,57.35
2022-09-15T15:56:01.946Z,56.96
2022-09-15T15:58:28.812Z,57.22
2022-09-15T16:00:58.620Z,57.30
2022-09-15T16:03:25.785Z,57.19
2022-09-15T16:05:57.072Z,57.47
2022-09-15T16:08:38.229Z,57.13
2022-09-15T16:11:07.852Z,57.39
2022-09-15T16:13:35.180Z,57.37
2022-09-15T16:16:02.594Z,57.09
2022-09-15T16:18:29.548Z,57.41
2022-09-15T16:20:56.483Z,57.32
2022-09-15T16:23:23.767Z,57.13
2022-09-15T16:25:59.549Z,57.43
2022-09-15T16:28:26.519Z,56.95
2022-09-15T16:30:53.357Z,57.28
2022-09-15T16:33:20.724Z,57.26
2022-09-15T16:35:51.427Z,57.38
2022-09-15T16:38:20.261Z,57.25
2022-09-15T16:40:48.537Z,57.14
2022-09-15T16:43:17.391Z,56.81
2022-09-15T16:45:45.218Z,57.27
2022-09-15T16:48:12.474Z,57.24
2022-09-15T16:50:50.057Z,56.93
2022-09-15T16:53:23.414Z,56.91
2022-09-15T16:55:52.271Z,57.12
2022-09-15T16:58:20.529Z,57.23
2022-09-15T17:00:49.149Z,56.93
2022-09-15T17:03:18.910Z,57.22
2022-09-15T17:05:49.711Z,57.17
2022-09-15T17:08:18.936Z,57.31
2022-09-15T17:10:46.768Z,57.35
2022-09-15T17:13:19.913Z,57.05
2022-09-15T17:15:47.421Z,57.54
2022-09-15T17:18:15.601Z,57.01
2022-09-15T17:20:44.555Z,56.96
2022-09-15T17:23:31.191Z,57.14
2022-09-15T17:26:01.311Z,57.16
2022-09-15T17:28:36.469Z,57.19
2022-09-15T17:31:15.701Z,57.13
2022-09-15T17:33:43.509Z,57.31
2022-09-15T17:36:10.680Z,57.01
2022-09-15T17:38:37.960Z,57.39
2022-09-15T17:41:05.007Z,57.37
2022-09-15T17:43:32.043Z,57.21
2022-09-15T17:45:59.129Z,57.30
2022-09-15T17:48:26.413Z,57.07
2022-09-15T17:50:53.494Z,57.03
2022-09-15T17:53:28.424Z,56.99
2022-09-15T17:55:55.918Z,57.45
2022-09-15T17:58:26.308Z,57.37
2022-09-15T18:00:53.954Z,57.10
2022-09-15T18:03:35.589Z,57.28
2022-09-15T18:06:06.393Z,57.23
2022-09-15T18:08:33.969Z,57.21
2022-09-15T18:11:01.039Z,56.93
2022-09-15T18:13:29.926Z,57.43
2022-09-15T18:15:58.000Z,57.22
2022-09-15T18:18:27.084Z,56.93
2022-09-15T18:20:56.769Z,57.09
2022-09-15T18:23:25.809Z,56.89
2022-09-15T18:25:52.827Z,56.97
2022-09-15T18:28:20.250Z,57.35
2022-09-15T18:30:49.393Z,56.73
2022-09-15T18:33:25.894Z,57.20
2022-09-15T18:35:59.028Z,56.81
2022-09-15T18:38:26.463Z,57.05
2022-09-15T18:40:56.057Z,57.24
2022-09-15T18:43:25.582Z,56.96
2022-09-15T18:45:57.365Z,57.16
2022-09-15T18:48:24.312Z,57.13
2022-09-15T18:50:51.333Z,56.66
2022-09-15T18:53:18.253Z,56.70
2022-09-15T18:55:45.126Z,57.06
2022-09-15T18:58:12.044Z,56.73
2022-09-15T19:00:39.070Z,57.17
2022-09-15T19:03:09.381Z,56.93
2022-09-15T19:05:36.453Z,56.94
2022-09-15T19:08:04.296Z,56.55
2022-09-15T19:10:31.229Z,56.57
2022-09-15T19:12:58.145Z,56.81
2022-09-15T19:15:25.070Z,57.03
2022-09-15T19:17:51.922Z,56.71
2022-09-15T19:20:19.013Z,56.68
2022-09-15T19:22:46.401Z,57.05
2022-09-15T19:25:13.857Z,56.68
2022-09-15T19:27:41.305Z,56.86
2022-09-15T19:30:10.212Z,56.31
2022-09-15T19:32:38.908Z,56.63
2022-09-15T19:35:07.846Z,56.58
2022-09-15T19:37:40.429Z,56.66
2022-09-15T19:40:10.008Z,57.00
2022-09-15T19:42:41.730Z,56.85
2022-09-15T19:45:10.493Z,56.67
2022-09-15T19:47:37.759Z,56.76
2022-09-15T19:50:06.867Z,56.81
2022-09-15T19:52:34.004Z,56.58
2022-09-15T19:55:00.845Z,56.43
2022-09-15T19:57:28.207Z,56.19
2022-09-15T19:59:55.035Z,56.51
2022-09-15T20:02:22.185Z,56.92
2022-09-15T20:04:50.441Z,56.63
2022-09-15T20:07:19.801Z,56.43
2022-09-15T20:09:47.471Z,56.62
2022-09-15T20:12:14.680Z,56.58
2022-09-15T20:14:41.598Z,56.34
2022-09-15T20:17:08.594Z,56.52
2022-09-15T20:19:36.950Z,56.47
2022-09-15T20:22:04.521Z,56.74
2022-09-15T20:24:31.425Z,56.45
2022-09-15T20:26:59.286Z,56.60
2022-09-15T20:29:26.357Z,56.57
2022-09-15T20:32:03.957Z,56.58
2022-09-15T20:34:31.705Z,56.37
2022-09-15T20:37:00.734Z,56.71
2022-09-15T20:39:27.686Z,56.49
2022-09-15T20:41:54.695Z,56.90
2022-09-15T20:44:24.388Z,56.45
2022-09-15T20:46:51.222Z,56.50
2022-09-15T20:49:18.211Z,56.37
2022-09-15T20:51:45.295Z,56.42
2022-09-15T20:54:12.446Z,56.58
2022-09-15T20:56:43.760Z,56.55
2022-09-15T20:59:13.875Z,56.83
2022-09-15T21:01:48.250Z,56.81
2022-09-15T21:04:15.276Z,56.67
2022-09-15T21:06:42.228Z,56.56
2022-09-15T21:09:11.221Z,56.88
2022-09-15T21:11:53.724Z,56.73
2022-09-15T21:14:20.830Z,56.46
2022-09-15T21:16:48.959Z,56.66
2022-09-15T21:19:16.190Z,56.50
2022-09-15T21:21:51.404Z,56.52
2022-09-15T21:24:18.415Z,56.44
2022-09-15T21:27:03.913Z,56.66
2022-09-15T21:29:31.604Z,56.77
2022-09-15T21:32:00.105Z,56.50
2022-09-15T21:34:28.188Z,56.63
2022-09-15T21:36:57.313Z,56.34
2022-09-15T21:39:24.429Z,56.54
2022-09-15T21:41:51.434Z,56.67
2022-09-15T21:44:18.690Z,56.30
2022-09-15T21:46:56.474Z,56.24
2022-09-15T21:49:27.774Z,56.27
2022-09-15T21:51:59.842Z,56.45
2022-09-15T21:54:30.360Z,56.70
2022-09-15T21:57:00.435Z,56.30
2022-09-15T21:59:27.451Z,56.30
2022-09-15T22:01:59.232Z,56.36
2022-09-15T22:04:28.493Z,56.67
2022-09-15T22:06:55.325Z,56.54
2022-09-15T22:09:22.227Z,56.53
2022-09-15T22:11:49.419Z,56.26
2022-09-15T22:14:17.284Z,56.08
2022-09-15T22:19:27.282Z,56.26
2022-09-15T22:21:54.093Z,56.50
2022-09-15T22:24:22.929Z,56.28
2022-09-15T22:26:50.308Z,56.23
2022-09-15T22:29:17.372Z,56.56
2022-09-15T22:31:44.397Z,56.39
2022-09-15T22:34:14.604Z,56.04
2022-09-15T22:36:41.527Z,56.32
2022-09-15T22:39:12.389Z,56.27
2022-09-15T22:41:42.775Z,56.18
2022-09-15T22:44:24.461Z,56.52
2022-09-15T22:46:54.193Z,56.13
2022-09-15T22:49:23.736Z,56.18
2022-09-15T22:51:51.545Z,56.36
2022-09-15T22:54:21.702Z,56.21
2022-09-15T22:56:48.929Z,56.18
2022-09-15T22:59:19.027Z,56.18
2022-09-15T23:01:47.846Z,56.05
2022-09-15T23:04:16.913Z,56.21
2022-09-15T23:06:43.835Z,56.53
2022-09-15T23:09:13.113Z,56.34
2022-09-15T23:11:43.865Z,56.35
2022-09-15T23:14:16.006Z,56.59
2022-09-15T23:16:46.476Z,56.36
2022-09-15T23:19:21.633Z,56.52
2022-09-15T23:21:51.915Z,56.22
2022-09-15T23:24:21.013Z,56.27
2022-09-15T23:26:53.337Z,56.35
2022-09-15T23:29:22.760Z,56.16
2022-09-15T23:31:55.481Z,56.42
2022-09-15T23:34:22.774Z,56.10
2022-09-15T23:36:50.875Z,56.32
2022-09-15T23:39:25.371Z,56.51
2022-09-15T23:41:57.993Z,56.47
2022-09-15T23:44:27.956Z,55.95
2022-09-15T23:46:58.470Z,56.03
2022-09-15T23:49:27.931Z,56.56
2022-09-15T23:52:02.263Z,56.18
2022-09-15T23:54:35.207Z,56.43
2022-09-15T23:57:09.857Z,56.45
2022-09-15T23:59:39.776Z,56.49
